EST,Max TemperatureF,Mean TemperatureF,Min TemperatureF,Max Dew PointF,MeanDew PointF,Min DewpointF,Max Humidity, Mean Humidity, Min Humidity, Max Sea Level PressureIn, Mean Sea Level PressureIn, Min Sea Level PressureIn, Max VisibilityMiles, Mean VisibilityMiles, Min VisibilityMiles, Max Wind SpeedMPH, Mean Wind SpeedMPH, Max Gust SpeedMPH,PrecipitationIn, CloudCover, Events, WindDirDegrees
2013-2-1,38,28,17,30,16,5,80,61,42,30.38,30.16,29.90,10,8,1,33,11,43,0.02,5,Snow,275
2013-2-2,31,23,15,29,22,11,92,71,50,30.42,30.15,30.04,10,3,1,18,1,23,0.24,7,Snow,236
2013-2-3,37,34,30,31,28,18,92,78,63,30.42,30.00,29.93,10,6,0,24,12,32,0.06,8,Fog-Snow,249
2013-2-4,39,29,18,27,22,15,92,72,52,30.14,30.05,29.95,10,10,10,10,1,15,0.00,6,,350
2013-2-5,51,41,30,38,32,26,92,74,56,29.99,29.95,29.92,10,10,6,16,4,21,T,6,Rain,234
2013-2-6,54,40,25,36,27,24,92,62,32,30.20,30.14,30.01,10,8,2,12,2,14,0.00,1,,245
2013-2-7,55,43,30,38,32,26,85,64,43,30.19,30.09,29.93,10,10,10,13,4,18,T,6,Rain,110
2013-2-8,53,44,35,44,35,25,93,67,41,30.23,29.99,29.88,10,9,3,21,5,28,0.07,7,Rain,324
2013-2-9,50,38,25,25,21,17,81,55,29,30.35,30.29,30.22,10,10,10,10,3,12,0.00,2,,312
2013-2-10,60,44,27,42,26,13,83,49,15,30.28,30.17,29.98,10,10,8,23,6,31,0.12,7,Rain,123
2013-2-11,56,49,41,50,45,29,93,77,60,30.07,30.00,29.93,10,10,6,20,9,25,0.04,7,Rain,229
2013-2-12,53,42,30,35,26,22,85,59,32,30.16,30.05,29.88,10,10,10,13,3,17,0.01,5,Rain,241
2013-2-13,47,42,37,43,37,31,93,82,70,29.93,29.75,29.62,10,8,2,23,7,29,0.31,8,Rain,271
2013-2-14,49,40,30,31,28,24,85,64,42,30.05,30.00,29.94,10,10,10,14,6,17,0.00,3,,238
2013-2-15,55,40,25,38,31,24,96,69,41,30.09,30.04,29.94,10,8,3,23,5,32,0.13,5,Rain-Snow,286
2013-2-16,36,30,24,32,24,12,96,69,41,30.03,29.97,29.92,10,9,4,17,7,23,T,7,Snow,321
2013-2-17,36,29,21,13,8,4,68,49,29,30.25,30.15,30.04,10,10,10,26,13,32,0.00,4,,270
2013-2-18,56,37,17,28,19,13,84,58,32,30.32,30.20,29.99,10,10,10,14,4,21,0.00,2,,158
2013-2-19,49,41,33,39,30,14,89,59,29,30.08,29.94,29.87,10,10,2,28,14,38,0.11,5,Rain,233
2013-2-20,42,32,22,18,12,6,77,50,23,30.19,30.15,30.09,10,10,10,17,8,24,0.00,2,,258
2013-2-21,52,36,19,36,18,12,85,53,21,30.25,30.16,30.05,10,10,7,8,3,11,0.21,3,Rain,55
2013-2-22,57,48,39,43,40,36,92,75,57,30.12,30.02,29.97,10,10,4,13,5,16,0.23,8,Rain,136
2013-2-23,57,49,40,46,42,38,93,77,61,30.00,29.90,29.81,10,9,4,9,3,13,0.05,7,Rain,243
2013-2-24,54,42,30,43,27,19,93,60,26,30.06,29.98,29.84,10,10,7,16,7,20,0.00,1,,268
2013-2-25,56,41,26,30,26,22,81,57,32,30.06,29.99,29.90,10,10,10,15,3,21,0.00,3,,82
2013-2-26,56,49,41,42,37,29,89,71,53,29.86,29.62,29.42,10,10,9,26,11,35,0.19,7,Rain,110
2013-2-27,47,42,37,36,32,30,85,72,58,29.82,29.76,29.62,10,10,10,23,13,31,0.03,8,Rain,242
2013-2-28,38,36,33,30,27,24,82,71,59,29.94,29.82,29.74,10,8,2,22,12,29,0.04,8,Snow,263